Anamosa, Iowa
Current Conditions -  °F | °C
As of 1:55 PM on Saturday 20 Dec 2014 (Local Time) from KMXO Reporting Station
Haze Haze  
Wind Chill: -4°   Ceiling: 600
Heat Index:   Visibility: 2.5mi
Dew Point:   Wind: 9mph
Humidity: 100%   Direction: 130°SE
Pressure: 30.18"   Gusts: NA
Location:  42.11°N, 91.28°W
Report Text: KMXO 201955Z AUTO 13008KT 2 1/2SM BR OVC006 M00/M00 A3018 RMK AO2
Loading
Personal Weather Stations






























Interactive Weather Map New forecast layout! Learn more

10-Day Weather Forecast

Advertisements
Track Severe Weather on mobile